createdAt,value
2023-04-15T00:00:30.106Z,3.55
2023-04-15T00:02:58.358Z,3.75
2023-04-15T00:05:26.742Z,3.38
2023-04-15T00:07:56.181Z,3.35
2023-04-15T00:10:24.328Z,3.60
2023-04-15T00:12:53.297Z,3.10
2023-04-15T00:15:22.415Z,3.13
2023-04-15T00:17:52.136Z,3.15
2023-04-15T00:20:20.361Z,2.60
2023-04-15T00:22:48.689Z,2.85
2023-04-15T00:25:18.279Z,2.63
2023-04-15T00:27:46.335Z,2.33
2023-04-15T00:30:14.501Z,2.30
2023-04-15T00:32:42.852Z,2.47
2023-04-15T00:35:11.015Z,2.38
2023-04-15T00:37:39.095Z,2.30
2023-04-15T00:40:11.782Z,2.33
2023-04-15T00:42:41.309Z,2.55
2023-04-15T00:45:10.318Z,2.25
2023-04-15T00:47:40.388Z,2.08
2023-04-15T00:50:10.005Z,2.90
2023-04-15T00:52:38.272Z,2.30
2023-04-15T00:55:09.072Z,2.22
2023-04-15T00:57:37.426Z,2.30
2023-04-15T01:00:11.513Z,2.13
2023-04-15T01:02:40.227Z,2.05
2023-04-15T01:05:09.425Z,2.35
2023-04-15T01:07:37.549Z,2.33
2023-04-15T01:10:06.471Z,2.33
2023-04-15T01:12:35.242Z,2.22
2023-04-15T01:15:03.688Z,2.05
2023-04-15T01:17:33.261Z,2.10
2023-04-15T01:20:01.667Z,2.88
2023-04-15T01:22:29.848Z,2.10
2023-04-15T01:25:08.248Z,2.00
2023-04-15T01:27:40.067Z,2.13
2023-04-15T01:30:09.394Z,2.20
2023-04-15T01:32:37.624Z,1.80
2023-04-15T01:35:06.165Z,2.33
2023-04-15T01:37:34.790Z,2.50
2023-04-15T01:40:03.370Z,2.42
2023-04-15T01:42:31.493Z,2.40
2023-04-15T01:45:00.961Z,2.50
2023-04-15T01:47:29.400Z,2.17
2023-04-15T01:49:57.511Z,2.63
2023-04-15T01:52:25.654Z,2.53
2023-04-15T01:54:53.696Z,2.40
2023-04-15T01:57:21.996Z,2.42
2023-04-15T01:59:50.111Z,2.88
2023-04-15T02:02:19.652Z,2.45
2023-04-15T02:04:47.817Z,2.72
2023-04-15T02:07:15.928Z,2.50
2023-04-15T02:09:46.117Z,3.00
2023-04-15T02:12:14.419Z,2.58
2023-04-15T02:14:42.471Z,2.80
2023-04-15T02:17:10.669Z,2.30
2023-04-15T02:19:40.523Z,2.70
2023-04-15T02:22:09.381Z,2.90
2023-04-15T02:24:37.488Z,2.53
2023-04-15T02:27:06.093Z,2.95
2023-04-15T02:29:34.153Z,2.42
2023-04-15T02:32:02.337Z,2.97
2023-04-15T02:34:31.511Z,3.00
2023-04-15T02:37:01.277Z,3.13
2023-04-15T02:39:29.343Z,2.60
2023-04-15T02:41:59.155Z,3.08
2023-04-15T02:44:27.392Z,2.95
2023-04-15T02:46:55.773Z,3.10
2023-04-15T02:49:23.838Z,3.42
2023-04-15T02:51:51.992Z,3.58
2023-04-15T02:54:23.904Z,3.00
2023-04-15T02:56:55.215Z,2.80
2023-04-15T02:59:23.636Z,3.30
2023-04-15T03:01:51.829Z,2.80
2023-04-15T03:04:20.031Z,2.90
2023-04-15T03:06:48.109Z,3.03
2023-04-15T03:09:16.173Z,3.50
2023-04-15T03:11:45.634Z,3.15
2023-04-15T03:14:13.692Z,3.20
2023-04-15T03:16:41.793Z,3.15
2023-04-15T03:19:09.862Z,3.28
2023-04-15T03:21:37.947Z,3.30
2023-04-15T03:24:06.312Z,2.75
2023-04-15T03:26:34.437Z,3.30
2023-04-15T03:29:03.994Z,2.90
2023-04-15T03:31:32.213Z,3.50
2023-04-15T03:34:00.362Z,3.50
2023-04-15T03:36:32.937Z,3.13
2023-04-15T03:39:02.339Z,3.45
2023-04-15T03:41:30.946Z,3.35
2023-04-15T03:43:59.004Z,3.95
2023-04-15T03:46:28.552Z,3.50
2023-04-15T03:48:56.633Z,3.78
2023-04-15T03:51:24.679Z,4.32
2023-04-15T03:53:52.797Z,4.03
2023-04-15T03:56:21.002Z,4.15
2023-04-15T03:58:49.091Z,4.80
2023-04-15T04:01:17.415Z,4.10
2023-04-15T04:03:46.962Z,4.05
2023-04-15T04:06:15.696Z,4.43
2023-04-15T04:08:43.767Z,4.00
2023-04-15T04:11:11.832Z,3.65
2023-04-15T04:13:39.978Z,3.80
2023-04-15T04:16:08.488Z,3.58
2023-04-15T04:18:36.629Z,3.90
2023-04-15T04:21:06.165Z,3.90
2023-04-15T04:23:34.504Z,4.32
2023-04-15T04:26:02.632Z,3.53
2023-04-15T04:28:30.712Z,3.50
2023-04-15T04:30:58.831Z,3.80
2023-04-15T04:33:26.873Z,4.10
2023-04-15T04:35:54.934Z,3.70
2023-04-15T04:38:24.455Z,4.20
2023-04-15T04:40:52.598Z,4.55
2023-04-15T04:43:20.700Z,4.07
2023-04-15T04:45:48.818Z,4.43
2023-04-15T04:48:17.365Z,4.32
2023-04-15T04:50:47.056Z,5.07
2023-04-15T04:53:16.145Z,5.53
2023-04-15T04:55:45.645Z,4.88
2023-04-15T04:58:13.722Z,4.97
2023-04-15T05:00:42.170Z,5.50
2023-04-15T05:03:10.499Z,4.97
2023-04-15T05:05:39.522Z,5.75
2023-04-15T05:08:07.652Z,5.07
2023-04-15T05:10:35.960Z,4.93
2023-04-15T05:13:05.431Z,4.60
2023-04-15T05:15:35.003Z,4.15
2023-04-15T05:18:03.228Z,4.50
2023-04-15T05:20:31.380Z,4.70
2023-04-15T05:22:59.455Z,4.55
2023-04-15T05:25:28.356Z,4.38
2023-04-15T05:27:56.425Z,4.70
2023-04-15T05:30:26.006Z,4.65
2023-04-15T05:32:54.236Z,4.22
2023-04-15T05:35:22.403Z,4.00
2023-04-15T05:37:50.504Z,3.92
2023-04-15T05:40:18.787Z,3.85
2023-04-15T05:42:46.908Z,3.72
2023-04-15T05:45:14.974Z,3.63
2023-04-15T05:47:44.466Z,4.45
2023-04-15T05:50:12.844Z,4.22
2023-04-15T05:52:41.130Z,4.28
2023-04-15T05:55:09.929Z,4.78
2023-04-15T05:57:37.998Z,4.32
2023-04-15T06:00:07.193Z,4.60
2023-04-15T06:02:35.446Z,4.25
2023-04-15T06:05:09.687Z,4.57
2023-04-15T06:07:38.421Z,4.13
2023-04-15T06:10:07.904Z,4.10
2023-04-15T06:12:36.091Z,4.50
2023-04-15T06:15:04.345Z,4.60
2023-04-15T06:17:32.456Z,4.70
2023-04-15T06:20:00.797Z,4.53
2023-04-15T06:22:30.294Z,4.85
2023-04-15T06:24:58.408Z,6.15
2023-04-15T06:27:26.600Z,5.85
2023-04-15T06:29:54.747Z,6.68
2023-04-15T06:32:22.882Z,6.00
2023-04-15T06:34:51.068Z,6.38
2023-04-15T06:37:19.119Z,6.45
2023-04-15T06:39:48.618Z,12.18
2023-04-15T06:42:16.765Z,9.18
2023-04-15T06:44:45.036Z,7.53
2023-04-15T06:47:14.777Z,7.32
2023-04-15T06:49:43.201Z,6.40
2023-04-15T06:52:12.675Z,6.13
2023-04-15T06:54:40.918Z,6.07
2023-04-15T06:57:10.662Z,5.63
2023-04-15T06:59:38.774Z,5.63
2023-04-15T07:02:06.874Z,6.35
2023-04-15T07:04:35.115Z,6.25
2023-04-15T07:07:03.192Z,5.50
2023-04-15T07:09:32.413Z,5.38
2023-04-15T07:12:00.509Z,5.75
2023-04-15T07:14:30.487Z,5.88
2023-04-15T07:16:58.702Z,7.28
2023-04-15T07:19:27.175Z,7.10
2023-04-15T07:21:55.312Z,6.32
2023-04-15T07:24:26.683Z,5.70
2023-04-15T07:26:56.858Z,6.18
2023-04-15T07:29:26.344Z,6.72
2023-04-15T07:31:57.138Z,5.50
2023-04-15T07:34:25.822Z,5.85
2023-04-15T07:36:53.912Z,6.45
2023-04-15T07:39:22.361Z,5.22
2023-04-15T07:41:50.542Z,8.15
2023-04-15T07:44:18.672Z,6.70
2023-04-15T07:46:46.770Z,5.90
2023-04-15T07:49:19.398Z,5.93
2023-04-15T07:51:47.472Z,5.35
2023-04-15T07:54:15.752Z,4.70
2023-04-15T07:56:43.997Z,4.30
2023-04-15T07:59:13.004Z,5.13
2023-04-15T08:01:41.194Z,4.22
2023-04-15T08:04:09.718Z,3.55
2023-04-15T08:06:39.989Z,2.92
2023-04-15T08:09:08.346Z,2.97
2023-04-15T08:11:36.509Z,3.03
2023-04-15T08:14:04.638Z,3.33
2023-04-15T08:16:33.189Z,2.80
2023-04-15T08:19:01.670Z,3.00
2023-04-15T08:21:30.952Z,3.50
2023-04-15T08:24:01.721Z,2.83
2023-04-15T08:26:29.905Z,2.25
2023-04-15T08:28:58.114Z,2.70
2023-04-15T08:31:28.689Z,2.50
2023-04-15T08:33:59.360Z,2.50
2023-04-15T08:36:28.523Z,2.75
2023-04-15T08:38:56.657Z,2.75
2023-04-15T08:41:27.593Z,2.40
2023-04-15T08:43:59.396Z,2.75
2023-04-15T08:46:27.793Z,3.15
2023-04-15T08:48:59.037Z,5.85
2023-04-15T08:51:27.766Z,7.50
2023-04-15T08:53:56.311Z,4.40
2023-04-15T08:56:27.735Z,3.90
2023-04-15T08:58:56.286Z,2.90
2023-04-15T09:01:24.686Z,3.40
2023-04-15T09:03:54.492Z,3.17
2023-04-15T09:06:24.379Z,2.60
2023-04-15T09:08:53.123Z,2.88
2023-04-15T09:11:23.089Z,2.38
2023-04-15T09:13:52.654Z,2.50
2023-04-15T09:16:20.873Z,2.40
2023-04-15T09:18:48.977Z,2.15
2023-04-15T09:21:19.182Z,2.15
2023-04-15T09:23:57.829Z,2.80
2023-04-15T09:26:36.833Z,2.15
2023-04-15T09:29:13.425Z,1.90
2023-04-15T09:31:42.792Z,2.00
2023-04-15T09:34:11.194Z,1.75
2023-04-15T09:36:57.839Z,1.70
2023-04-15T09:39:25.913Z,1.65
2023-04-15T09:42:08.066Z,1.52
2023-04-15T09:44:37.676Z,1.52
2023-04-15T09:47:05.823Z,1.50
2023-04-15T09:49:34.217Z,1.40
2023-04-15T09:52:05.595Z,1.80
2023-04-15T09:54:39.346Z,1.70
2023-04-15T09:57:08.322Z,1.02
2023-04-15T09:59:37.772Z,1.00
2023-04-15T10:02:07.509Z,1.10
2023-04-15T10:04:39.077Z,1.50
2023-04-15T10:07:08.511Z,1.48
2023-04-15T10:09:37.901Z,1.10
2023-04-15T10:12:06.587Z,1.40
2023-04-15T10:14:39.042Z,1.60
2023-04-15T10:17:08.905Z,1.27
2023-04-15T10:19:39.114Z,1.65
2023-04-15T10:22:08.119Z,2.25
2023-04-15T10:24:37.318Z,6.05
2023-04-15T10:27:06.867Z,3.90
2023-04-15T10:29:37.676Z,3.55
2023-04-15T10:32:06.317Z,1.60
2023-04-15T10:34:34.728Z,2.50
2023-04-15T10:37:04.731Z,1.73
2023-04-15T10:39:44.442Z,1.88
2023-04-15T10:42:14.140Z,2.22
2023-04-15T10:44:46.400Z,2.00
2023-04-15T10:47:18.755Z,1.90
2023-04-15T10:49:49.319Z,2.30
2023-04-15T10:52:19.021Z,2.58
2023-04-15T10:54:47.664Z,2.53
2023-04-15T10:57:18.444Z,2.58
2023-04-15T11:00:11.539Z,3.10
2023-04-15T11:02:49.901Z,2.63
2023-04-15T11:05:19.462Z,2.55
2023-04-15T11:07:53.539Z,2.35
2023-04-15T11:10:55.211Z,2.00
2023-04-15T11:13:28.947Z,2.55
2023-04-15T11:16:01.419Z,2.35
2023-04-15T11:18:32.870Z,2.10
2023-04-15T11:21:05.769Z,2.42
2023-04-15T11:23:39.205Z,3.55
2023-04-15T11:26:11.987Z,2.25
2023-04-15T11:28:42.028Z,2.20
2023-04-15T11:31:12.912Z,2.42
2023-04-15T11:33:48.070Z,2.03
2023-04-15T11:36:16.215Z,2.40
2023-04-15T11:38:46.015Z,2.55
2023-04-15T11:41:14.439Z,2.70
2023-04-15T11:43:42.771Z,2.53
2023-04-15T11:46:14.606Z,2.30
2023-04-15T11:48:44.831Z,2.85
2023-04-15T11:51:14.092Z,2.70
2023-04-15T11:53:43.879Z,2.88
2023-04-15T11:56:13.177Z,4.53
2023-04-15T11:58:42.547Z,3.75
2023-04-15T12:01:12.070Z,4.93
2023-04-15T12:03:42.456Z,3.78
2023-04-15T12:06:19.063Z,3.30
2023-04-15T12:09:12.175Z,3.20
2023-04-15T12:11:47.980Z,2.27
2023-04-15T12:14:25.921Z,2.30
2023-04-15T12:16:58.357Z,2.22
2023-04-15T12:19:28.678Z,1.90
2023-04-15T12:22:01.238Z,2.50
2023-04-15T12:24:32.108Z,2.45
2023-04-15T12:27:03.757Z,2.38
2023-04-15T12:29:32.359Z,2.35
2023-04-15T12:32:08.631Z,2.35
2023-04-15T12:34:38.251Z,2.30
2023-04-15T12:37:09.592Z,2.03
2023-04-15T12:39:38.986Z,1.83
2023-04-15T12:42:07.722Z,2.22
2023-04-15T12:44:36.984Z,6.13
2023-04-15T12:47:06.846Z,6.57
2023-04-15T12:49:35.065Z,4.00
2023-04-15T12:52:04.544Z,2.90
2023-04-15T12:54:33.313Z,3.05
2023-04-15T12:57:04.697Z,2.33
2023-04-15T13:02:03.224Z,2.85
2023-04-15T13:04:33.022Z,2.97
2023-04-15T13:07:01.503Z,2.40
2023-04-15T13:09:30.071Z,2.47
2023-04-15T13:11:58.186Z,2.40
2023-04-15T13:14:27.141Z,2.92
2023-04-15T13:16:55.215Z,2.95
2023-04-15T13:19:23.355Z,3.25
2023-04-15T13:21:52.890Z,2.78
2023-04-15T13:24:21.019Z,2.58
2023-04-15T13:26:50.352Z,2.70
2023-04-15T13:29:18.808Z,3.25
2023-04-15T13:31:47.028Z,2.90
2023-04-15T13:34:15.129Z,2.22
2023-04-15T13:36:43.233Z,2.67
2023-04-15T13:39:12.735Z,2.55
2023-04-15T13:41:42.017Z,2.75
2023-04-15T13:44:10.160Z,2.70
2023-04-15T13:46:39.617Z,5.60
2023-04-15T13:49:07.705Z,3.30
2023-04-15T13:51:36.892Z,2.95
2023-04-15T13:54:05.366Z,3.40
2023-04-15T13:56:35.063Z,2.83
2023-04-15T13:59:04.095Z,3.00
2023-04-15T14:01:32.228Z,3.13
2023-04-15T14:04:00.546Z,2.50
2023-04-15T14:06:29.581Z,2.45
2023-04-15T14:08:57.684Z,2.10
2023-04-15T14:11:25.767Z,2.00
2023-04-15T14:13:55.247Z,1.90
2023-04-15T14:16:23.406Z,2.05
2023-04-15T14:18:51.550Z,2.30
2023-04-15T14:21:19.609Z,1.98
2023-04-15T14:23:47.661Z,1.95
2023-04-15T14:26:15.821Z,1.80
2023-04-15T14:28:45.051Z,1.58
2023-04-15T14:31:15.116Z,1.80
2023-04-15T14:33:43.526Z,2.17
2023-04-15T14:36:11.666Z,1.75
2023-04-15T14:38:40.179Z,1.30
2023-04-15T14:41:09.448Z,1.50
2023-04-15T14:43:38.063Z,1.95
2023-04-15T14:46:06.348Z,2.00
2023-04-15T14:48:35.952Z,2.00
2023-04-15T14:51:04.068Z,2.05
2023-04-15T14:53:32.203Z,2.28
2023-04-15T14:56:00.316Z,1.63
2023-04-15T14:58:28.366Z,1.95
2023-04-15T15:00:56.503Z,1.88
2023-04-15T15:03:25.274Z,2.22
2023-04-15T15:05:55.035Z,2.38
2023-04-15T15:08:23.316Z,3.10
2023-04-15T15:10:51.421Z,3.75
2023-04-15T15:13:20.097Z,2.50
2023-04-15T15:15:49.567Z,2.70
2023-04-15T15:18:19.177Z,2.55
2023-04-15T15:20:47.779Z,2.00
2023-04-15T15:23:17.352Z,3.15
2023-04-15T15:25:45.537Z,2.03
2023-04-15T15:28:13.712Z,1.80
2023-04-15T15:30:41.967Z,1.67
2023-04-15T15:33:10.072Z,1.50
2023-04-15T15:35:38.171Z,1.20
2023-04-15T15:38:06.343Z,1.08
2023-04-15T15:40:35.813Z,1.10
2023-04-15T15:43:04.567Z,1.15
2023-04-15T15:45:32.749Z,1.20
2023-04-15T15:48:01.384Z,2.20
2023-04-15T15:50:29.571Z,2.08
2023-04-15T15:52:58.597Z,1.45
2023-04-15T15:55:27.324Z,1.67
2023-04-15T15:57:56.798Z,1.75
2023-04-15T16:00:25.571Z,1.50
2023-04-15T16:03:06.730Z,1.20
2023-04-15T16:05:35.812Z,1.40
2023-04-15T16:08:03.910Z,1.20
2023-04-15T16:10:32.226Z,1.58
2023-04-15T16:13:01.992Z,1.63
2023-04-15T16:15:30.462Z,1.40
2023-04-15T16:17:58.679Z,2.15
2023-04-15T16:20:28.374Z,1.55
2023-04-15T16:22:58.597Z,2.03
2023-04-15T16:25:26.941Z,1.80
2023-04-15T16:28:05.504Z,1.70
2023-04-15T16:30:41.961Z,1.70
2023-04-15T16:33:10.648Z,1.77
2023-04-15T16:35:38.725Z,1.60
2023-04-15T16:38:07.054Z,2.42
2023-04-15T16:40:35.141Z,2.22
2023-04-15T16:43:04.263Z,1.92
2023-04-15T16:45:32.350Z,1.63
2023-04-15T16:48:01.811Z,2.35
2023-04-15T16:50:29.948Z,2.17
2023-04-15T16:52:58.236Z,1.90
2023-04-15T16:55:26.467Z,4.47
2023-04-15T16:58:02.562Z,2.53
2023-04-15T17:00:32.217Z,1.92
2023-04-15T17:03:02.301Z,1.92
2023-04-15T17:05:31.133Z,1.80
2023-04-15T17:07:59.447Z,2.10
2023-04-15T17:10:27.788Z,1.60
2023-04-15T17:12:57.498Z,1.70
2023-04-15T17:15:26.023Z,2.10
2023-04-15T17:17:54.441Z,1.75
2023-04-15T17:20:24.001Z,2.40
2023-04-15T17:22:52.153Z,2.30
2023-04-15T17:25:20.337Z,4.18
2023-04-15T17:27:48.409Z,5.60
2023-04-15T17:30:16.651Z,6.20
2023-04-15T17:32:44.871Z,6.47
2023-04-15T17:35:13.157Z,2.67
2023-04-15T17:37:42.643Z,1.77
2023-04-15T17:40:11.883Z,1.35
2023-04-15T17:42:40.248Z,1.50
2023-04-15T17:45:09.593Z,1.38
2023-04-15T17:47:37.881Z,1.80
2023-04-15T17:50:06.791Z,1.52
2023-04-15T17:52:35.028Z,1.30
2023-04-15T17:55:04.617Z,3.03
2023-04-15T17:57:32.970Z,5.65
2023-04-15T18:00:01.255Z,4.05
2023-04-15T18:02:29.601Z,2.80
2023-04-15T18:04:58.017Z,2.78
2023-04-15T18:07:26.779Z,3.35
2023-04-15T18:09:55.925Z,3.17
2023-04-15T18:12:25.452Z,4.22
2023-04-15T18:14:53.741Z,5.78
2023-04-15T18:17:21.876Z,5.75
2023-04-15T18:19:50.046Z,6.28
2023-04-15T18:22:18.185Z,5.65
2023-04-15T18:24:46.263Z,9.02
2023-04-15T18:27:14.354Z,20.27
2023-04-15T18:29:43.983Z,6.80
2023-04-15T18:32:12.142Z,4.38
2023-04-15T18:34:40.320Z,3.17
2023-04-15T18:37:08.563Z,2.67
2023-04-15T18:39:36.637Z,4.07
2023-04-15T18:42:04.916Z,3.30
2023-04-15T18:44:33.135Z,3.65
2023-04-15T18:47:02.751Z,2.20
2023-04-15T18:49:33.209Z,2.40
2023-04-15T18:52:01.424Z,2.28
2023-04-15T18:54:29.507Z,2.30
2023-04-15T18:56:57.830Z,1.80
2023-04-15T18:59:30.201Z,1.92
2023-04-15T19:01:59.578Z,2.10
2023-04-15T19:04:29.875Z,1.77
2023-04-15T19:06:59.043Z,2.00
2023-04-15T19:09:27.431Z,1.95
2023-04-15T19:11:56.809Z,2.47
2023-04-15T19:14:25.050Z,2.38
2023-04-15T19:16:53.202Z,3.72
2023-04-15T19:19:21.326Z,2.65
2023-04-15T19:21:51.159Z,2.67
2023-04-15T19:24:19.317Z,2.83
2023-04-15T19:26:50.061Z,3.58
2023-04-15T19:29:18.667Z,2.70
2023-04-15T19:31:46.752Z,2.22
2023-04-15T19:34:14.842Z,2.30
2023-04-15T19:36:43.148Z,2.70
2023-04-15T19:39:12.727Z,3.17
2023-04-15T19:41:40.982Z,3.22
2023-04-15T19:44:09.115Z,6.18
2023-04-15T19:46:37.322Z,5.90
2023-04-15T19:49:05.876Z,3.05
2023-04-15T19:51:34.208Z,2.17
2023-04-15T19:54:02.325Z,2.45
2023-04-15T19:56:34.261Z,1.65
2023-04-15T19:59:02.900Z,1.90
2023-04-15T20:01:31.452Z,1.95
2023-04-15T20:03:59.881Z,2.28
2023-04-15T20:06:28.514Z,3.53
2023-04-15T20:08:56.609Z,4.07
2023-04-15T20:12:45.969Z,2.80
2023-04-15T20:14:18.646Z,3.00
2023-04-15T20:16:46.802Z,3.80
2023-04-15T20:19:14.880Z,4.28
2023-04-15T20:21:42.979Z,3.20
2023-04-15T20:24:11.136Z,2.83
2023-04-15T20:26:39.220Z,4.47
2023-04-15T20:29:07.555Z,9.85
2023-04-15T20:31:37.492Z,4.88
2023-04-15T20:34:05.740Z,3.13
2023-04-15T20:36:33.925Z,2.20
2023-04-15T20:39:02.004Z,1.75
2023-04-15T20:41:30.503Z,2.10
2023-04-15T20:43:58.931Z,1.48
2023-04-15T20:46:27.749Z,3.30
2023-04-15T20:48:58.604Z,3.30
2023-04-15T20:51:27.507Z,3.92
2023-04-15T20:53:55.635Z,5.45
2023-04-15T20:56:23.714Z,4.20
2023-04-15T20:58:51.813Z,4.05
2023-04-15T21:01:20.050Z,4.97
2023-04-15T21:03:48.367Z,4.88
2023-04-15T21:06:17.892Z,4.57
2023-04-15T21:08:46.073Z,3.45
2023-04-15T21:11:28.333Z,3.15
2023-04-15T21:14:03.260Z,3.72
2023-04-15T21:16:31.970Z,3.13
2023-04-15T21:19:00.330Z,3.53
2023-04-15T21:21:29.785Z,2.55
2023-04-15T21:23:58.073Z,3.40
2023-04-15T21:26:26.375Z,2.45
2023-04-15T21:28:54.504Z,3.38
2023-04-15T21:31:22.729Z,4.28
2023-04-15T21:33:50.874Z,3.75
2023-04-15T21:36:18.957Z,13.80
2023-04-15T21:38:48.394Z,9.95
2023-04-15T21:41:16.515Z,4.80
2023-04-15T21:43:44.741Z,3.60
2023-04-15T21:46:22.223Z,3.17
2023-04-15T21:48:53.687Z,3.05
2023-04-15T21:51:21.826Z,2.20
2023-04-15T21:53:52.679Z,3.63
2023-04-15T21:56:24.130Z,3.28
2023-04-15T21:58:55.296Z,3.38
2023-04-15T22:01:23.420Z,3.53
2023-04-15T22:03:51.890Z,3.25
2023-04-15T22:06:20.254Z,3.38
2023-04-15T22:08:56.130Z,3.40
2023-04-15T22:11:28.428Z,3.72
2023-04-15T22:13:57.706Z,3.80
2023-04-15T22:16:26.743Z,3.22
2023-04-15T22:18:55.314Z,3.85
2023-04-15T22:21:24.008Z,4.25
2023-04-15T22:23:53.205Z,4.00
2023-04-15T22:26:42.729Z,4.13
2023-04-15T22:29:11.149Z,4.13
2023-04-15T22:31:39.293Z,4.50
2023-04-15T22:34:08.065Z,4.70
2023-04-15T22:36:36.146Z,4.65
2023-04-15T22:39:04.474Z,4.82
2023-04-15T22:41:32.822Z,4.63
2023-04-15T22:44:02.334Z,5.10
2023-04-15T22:46:30.515Z,5.28
2023-04-15T22:48:58.832Z,4.82
2023-04-15T22:51:28.107Z,5.28
2023-04-15T22:53:56.340Z,5.57
2023-04-15T22:56:24.908Z,5.10
2023-04-15T22:58:53.635Z,5.63
2023-04-15T23:01:23.264Z,5.43
2023-04-15T23:03:57.001Z,5.18
2023-04-15T23:06:31.270Z,5.25
2023-04-15T23:08:59.393Z,5.45
2023-04-15T23:11:27.471Z,5.05
2023-04-15T23:13:55.555Z,5.07
2023-04-15T23:16:25.050Z,4.53
2023-04-15T23:18:53.167Z,5.40
2023-04-15T23:21:22.221Z,5.18
2023-04-15T23:23:52.553Z,4.30
2023-04-15T23:26:20.657Z,4.40
2023-04-15T23:28:48.901Z,4.55
2023-04-15T23:31:17.028Z,4.70
2023-04-15T23:33:46.538Z,4.38
2023-04-15T23:36:15.055Z,4.90
2023-04-15T23:38:45.365Z,4.22
2023-04-15T23:41:13.499Z,4.78
2023-04-15T23:43:41.600Z,4.20
2023-04-15T23:46:09.711Z,4.93
2023-04-15T23:48:38.039Z,4.05
2023-04-15T23:51:08.818Z,4.30
2023-04-15T23:53:37.338Z,4.55
2023-04-15T23:56:06.276Z,4.10
2023-04-15T23:58:34.856Z,4.03
